Time;durP1;ratioP1;P1;durP2;ratioP2;P2;SDS_P1;SDS_P2;PMS_P1;PMS_P2;Temp;Humidity;BMP_temperature;BMP_pressure;BME280_temperature;BME280_humidity;BME280_pressure;Samples;Min_cycle;Max_cycle;Signal;HPM_P1;HPM_P2
2022/05/09 00:00:28;;;;;;;12.88;3.80;;;9.20;92.10;;;;;;5012885;28;20137;-42
2022/05/09 00:02:54;;;;;;;17.98;4.53;;;9.10;92.20;;;;;;5008932;28;20049;-43
2022/05/09 00:05:24;;;;;;;17.73;3.95;;;9.00;92.20;;;;;;5011228;28;20482;-42
2022/05/09 00:07:52;;;;;;;14.55;4.00;;;9.00;92.40;;;;;;5011344;28;20046;-43
2022/05/09 00:10:22;;;;;;;20.73;4.65;;;8.90;92.40;;;;;;5004372;28;20064;-42
2022/05/09 00:12:49;;;;;;;18.65;4.55;;;8.90;92.20;;;;;;5012850;28;20418;-42
2022/05/09 00:15:17;;;;;;;17.10;4.18;;;8.90;92.20;;;;;;5013416;28;20058;-42
2022/05/09 00:17:45;;;;;;;17.60;4.63;;;8.90;92.50;;;;;;5010841;28;20469;-42
2022/05/09 00:20:12;;;;;;;18.30;4.15;;;8.80;92.60;;;;;;5008827;28;20108;-42
2022/05/09 00:22:50;;;;;;;16.35;4.32;;;8.80;92.40;;;;;;5006467;28;20046;-41
2022/05/09 00:25:19;;;;;;;14.25;4.05;;;8.80;92.30;;;;;;5006002;28;20049;-42
2022/05/09 00:27:46;;;;;;;20.70;4.00;;;8.80;92.10;;;;;;5011001;28;20145;-41
2022/05/09 00:30:13;;;;;;;20.17;5.00;;;8.80;92.00;;;;;;5011140;28;20060;-42
2022/05/09 00:32:40;;;;;;;17.20;4.45;;;8.80;92.90;;;;;;5010826;28;20038;-42
2022/05/09 00:35:09;;;;;;;14.30;3.60;;;8.70;92.90;;;;;;5011133;28;20050;-42
2022/05/09 00:37:35;;;;;;;14.82;4.10;;;8.70;92.70;;;;;;5007706;28;20054;-42
2022/05/09 00:40:03;;;;;;;17.10;4.50;;;8.70;92.50;;;;;;5009667;28;20038;-42
2022/05/09 00:42:31;;;;;;;13.75;4.43;;;8.70;92.50;;;;;;4990006;28;20068;-42
2022/05/09 00:44:58;;;;;;;17.00;4.53;;;8.60;93.10;;;;;;4972172;28;20070;-42
2022/05/09 00:47:28;;;;;;;13.82;4.22;;;8.60;93.40;;;;;;4990147;28;20054;-42
2022/05/09 00:49:57;;;;;;;15.55;4.30;;;8.60;93.70;;;;;;4986915;28;20056;-42
2022/05/09 00:52:27;;;;;;;20.25;4.40;;;8.50;93.40;;;;;;4985813;28;20503;-42
2022/05/09 00:54:56;;;;;;;15.73;4.70;;;8.50;93.70;;;;;;4974824;28;20234;-42
2022/05/09 00:57:24;;;;;;;18.80;4.22;;;8.40;94.00;;;;;;4988734;28;20639;-42
2022/05/09 00:59:54;;;;;;;11.13;3.70;;;8.40;93.90;;;;;;4992874;28;20050;-42
2022/05/09 01:02:21;;;;;;;17.40;4.70;;;8.40;93.60;;;;;;4992524;28;20046;-42
2022/05/09 01:04:50;;;;;;;13.05;3.83;;;8.40;93.60;;;;;;4991628;28;20054;-42
2022/05/09 01:07:17;;;;;;;22.02;4.95;;;8.40;93.50;;;;;;4987697;28;20053;-42
2022/05/09 01:09:43;;;;;;;22.33;5.30;;;8.30;93.30;;;;;;4992675;28;20422;-42
2022/05/09 01:12:11;;;;;;;19.35;4.82;;;8.30;93.40;;;;;;4991634;28;20121;-42
2022/05/09 01:14:39;;;;;;;18.83;4.25;;;8.30;93.50;;;;;;4974614;28;20049;-42
2022/05/09 01:17:07;;;;;;;26.65;5.53;;;8.30;93.50;;;;;;4992036;28;20426;-42
2022/05/09 01:19:36;;;;;;;16.88;4.65;;;8.30;93.50;;;;;;4974445;28;20479;-42
2022/05/09 01:22:06;;;;;;;19.40;3.65;;;8.30;93.30;;;;;;4973712;28;20046;-42
2022/05/09 01:24:32;;;;;;;14.50;3.80;;;8.30;93.30;;;;;;4991752;28;20042;-42
2022/05/09 01:26:59;;;;;;;15.60;3.92;;;8.30;93.30;;;;;;4973925;28;20491;-42
2022/05/09 01:29:36;;;;;;;13.70;4.30;;;8.20;93.10;;;;;;4991615;28;20046;-42
2022/05/09 01:32:04;;;;;;;14.93;4.30;;;8.20;92.90;;;;;;4991998;28;20050;-42
2022/05/09 01:34:30;;;;;;;19.50;4.40;;;8.20;92.90;;;;;;4991408;28;20054;-42
2022/05/09 01:36:59;;;;;;;20.10;4.18;;;8.30;93.10;;;;;;4974436;28;20380;-42
2022/05/09 01:39:29;;;;;;;14.80;4.35;;;8.20;93.20;;;;;;4960278;28;20056;-42
2022/05/09 01:41:56;;;;;;;15.02;3.55;;;8.10;93.30;;;;;;4996887;28;20080;-42
2022/05/09 01:44:23;;;;;;;18.65;4.15;;;8.10;93.30;;;;;;5012216;28;20482;-42
2022/05/09 01:49:35;;;;;;;23.33;5.07;;;8.00;93.40;;;;;;5011941;28;20053;-42
2022/05/09 01:52:03;;;;;;;14.50;4.13;;;8.00;93.50;;;;;;5003579;28;20136;-42
2022/05/09 01:54:31;;;;;;;15.45;4.13;;;8.00;93.50;;;;;;5011171;28;20046;-42
2022/05/09 01:56:58;;;;;;;17.25;3.90;;;8.00;93.50;;;;;;5009311;28;20050;-42
2022/05/09 01:59:25;;;;;;;19.67;5.13;;;8.00;93.50;;;;;;5012141;28;20060;-42
2022/05/09 02:01:53;;;;;;;20.92;4.32;;;8.00;94.10;;;;;;5010034;28;20057;-43
2022/05/09 02:04:20;;;;;;;16.85;4.57;;;7.90;94.20;;;;;;5010229;28;20144;-42
2022/05/09 02:06:46;;;;;;;22.95;5.50;;;7.90;94.20;;;;;;5011989;28;20482;-42
2022/05/09 02:09:13;;;;;;;16.55;4.32;;;7.90;94.00;;;;;;5010826;28;20045;-42
2022/05/09 02:11:41;;;;;;;14.52;4.65;;;7.90;93.80;;;;;;5010004;28;20045;-41
2022/05/09 02:14:08;;;;;;;15.55;4.10;;;7.90;93.80;;;;;;5009980;28;20132;-41
2022/05/09 02:16:35;;;;;;;16.80;5.03;;;7.80;93.70;;;;;;5008304;28;20367;-42
2022/05/09 02:19:03;;;;;;;15.00;4.13;;;7.80;94.00;;;;;;5011371;28;20405;-41
2022/05/09 02:21:30;;;;;;;18.00;4.88;;;7.80;93.90;;;;;;5015961;28;20049;-41
2022/05/09 02:23:57;;;;;;;14.30;4.22;;;7.80;94.20;;;;;;5014369;28;20065;-42
2022/05/09 02:26:24;;;;;;;14.13;4.03;;;7.70;94.10;;;;;;5015084;28;20115;-41
2022/05/09 02:28:52;;;;;;;15.88;4.35;;;7.70;94.10;;;;;;5015110;28;20054;-41
2022/05/09 02:31:20;;;;;;;13.07;3.88;;;7.70;94.20;;;;;;5011030;28;20093;-42
2022/05/09 02:33:47;;;;;;;15.60;5.10;;;7.70;94.10;;;;;;5008862;28;20092;-41
2022/05/09 02:36:14;;;;;;;18.02;4.60;;;7.60;94.40;;;;;;5015172;28;20045;-41
2022/05/09 02:38:41;;;;;;;17.05;4.50;;;7.60;94.70;;;;;;5003004;28;20113;-42
2022/05/09 02:41:07;;;;;;;13.15;4.18;;;7.50;94.90;;;;;;5013360;28;20426;-42
2022/05/09 02:43:35;;;;;;;17.45;4.30;;;7.50;95.00;;;;;;5011792;28;20060;-41
2022/05/09 02:46:04;;;;;;;15.65;4.82;;;7.40;95.10;;;;;;5014133;28;20058;-41
2022/05/09 02:48:31;;;;;;;16.67;4.18;;;7.40;95.20;;;;;;5013969;28;20049;-41
2022/05/09 02:50:57;;;;;;;14.32;4.72;;;7.40;95.10;;;;;;5012729;28;20050;-42
2022/05/09 02:53:24;;;;;;;19.45;6.10;;;7.30;95.00;;;;;;5012973;28;20045;-41
2022/05/09 02:55:51;;;;;;;12.98;4.07;;;7.30;95.40;;;;;;5014070;28;20056;-41
2022/05/09 02:58:18;;;;;;;14.52;5.05;;;7.20;95.60;;;;;;5009641;28;20368;-41
2022/05/09 03:00:45;;;;;;;15.95;4.55;;;7.10;95.70;;;;;;5007512;28;20050;-41
2022/05/09 03:05:57;;;;;;;23.38;5.28;;;7.00;96.10;;;;;;5014082;28;20559;-41
2022/05/09 03:08:25;;;;;;;20.35;5.13;;;6.90;96.40;;;;;;5006173;28;20050;-41
2022/05/09 03:10:51;;;;;;;13.48;3.92;;;6.90;96.50;;;;;;5001186;28;20558;-41
2022/05/09 03:13:18;;;;;;;18.95;4.68;;;6.90;96.40;;;;;;5003277;28;20068;-41
2022/05/09 03:15:47;;;;;;;15.95;4.63;;;6.80;96.40;;;;;;5013889;28;20056;-41
2022/05/09 03:18:17;;;;;;;15.48;4.22;;;6.80;96.60;;;;;;5014009;28;20060;-42
2022/05/09 03:20:44;;;;;;;13.73;3.80;;;6.80;96.60;;;;;;5000341;28;20473;-42
2022/05/09 03:23:11;;;;;;;12.02;4.32;;;6.80;96.60;;;;;;5013700;28;20046;-42
2022/05/09 03:25:38;;;;;;;14.05;4.72;;;6.70;96.40;;;;;;5013748;28;20046;-41
2022/05/09 03:28:06;;;;;;;18.67;4.82;;;6.70;96.20;;;;;;5009409;28;20050;-42
2022/05/09 03:30:33;;;;;;;18.25;5.00;;;6.80;96.20;;;;;;5013968;28;20072;-41
2022/05/09 03:33:00;;;;;;;13.50;4.57;;;6.80;96.10;;;;;;5014136;28;20140;-42
2022/05/09 03:35:28;;;;;;;18.20;5.18;;;6.80;96.10;;;;;;5014388;28;20056;-41
2022/05/09 03:37:55;;;;;;;18.60;5.05;;;6.80;96.10;;;;;;5012949;28;20057;-42
2022/05/09 03:40:21;;;;;;;14.93;4.07;;;6.80;96.10;;;;;;5012281;28;20046;-42
2022/05/09 03:42:48;;;;;;;15.05;4.20;;;6.80;95.90;;;;;;5012020;28;20069;-42
2022/05/09 03:45:15;;;;;;;15.10;4.50;;;6.80;95.70;;;;;;5013645;28;20128;-42
2022/05/09 03:47:42;;;;;;;13.30;4.38;;;6.80;95.60;;;;;;5014004;28;20052;-42
2022/05/09 03:50:09;;;;;;;14.93;4.63;;;6.80;95.60;;;;;;5011019;28;20052;-42
2022/05/09 03:52:37;;;;;;;12.95;5.00;;;6.80;95.50;;;;;;5011716;28;20046;-42
2022/05/09 03:55:05;;;;;;;10.35;4.38;;;6.80;95.60;;;;;;5001664;28;20050;-42
2022/05/09 03:57:31;;;;;;;13.70;4.35;;;6.80;95.20;;;;;;5013691;28;20509;-42
2022/05/09 04:00:03;;;;;;;15.20;5.43;;;6.80;95.50;;;;;;5012079;28;20046;-42
2022/05/09 04:02:30;;;;;;;13.77;4.50;;;6.80;95.60;;;;;;5012047;28;20387;-42
2022/05/09 04:04:57;;;;;;;13.13;4.00;;;6.80;95.20;;;;;;5014665;28;20058;-42
2022/05/09 04:07:23;;;;;;;13.15;4.35;;;6.80;95.00;;;;;;5009880;28;20056;-42
2022/05/09 04:09:51;;;;;;;16.50;5.20;;;6.80;95.00;;;;;;5006110;28;20043;-42
2022/05/09 04:12:18;;;;;;;16.17;4.53;;;6.80;95.30;;;;;;5009577;28;20130;-42
2022/05/09 04:17:29;;;;;;;14.52;4.50;;;6.80;95.30;;;;;;5006581;28;20053;-42
2022/05/09 04:19:56;;;;;;;15.35;4.70;;;6.80;95.30;;;;;;4998409;28;20501;-41
2022/05/09 04:22:22;;;;;;;14.73;4.25;;;6.80;95.30;;;;;;5008587;28;20068;-42
2022/05/09 04:24:50;;;;;;;15.48;4.40;;;6.80;95.60;;;;;;5011732;28;20053;-42
2022/05/09 04:27:18;;;;;;;12.48;4.57;;;6.80;95.60;;;;;;5009110;28;20049;-42
2022/05/09 04:29:47;;;;;;;14.63;5.10;;;6.70;95.50;;;;;;5011725;28;20041;-42
2022/05/09 04:32:14;;;;;;;14.52;5.38;;;6.70;95.40;;;;;;5007815;28;20046;-42
2022/05/09 04:34:40;;;;;;;14.98;4.78;;;6.80;95.60;;;;;;5012749;28;20054;-42
2022/05/09 04:37:07;;;;;;;17.83;4.75;;;6.80;95.70;;;;;;5010726;28;20060;-43
2022/05/09 04:39:34;;;;;;;15.98;5.00;;;6.80;95.80;;;;;;5011545;28;20474;-42
2022/05/09 04:42:00;;;;;;;16.27;4.57;;;6.80;95.80;;;;;;5012962;28;20155;-42
2022/05/09 04:44:28;;;;;;;14.68;4.50;;;6.80;95.80;;;;;;5006615;28;20050;-42
2022/05/09 04:46:55;;;;;;;12.35;4.28;;;6.80;95.60;;;;;;5010749;28;20048;-42
2022/05/09 04:49:22;;;;;;;15.00;4.03;;;6.90;95.70;;;;;;5008646;28;20080;-42
2022/05/09 04:51:48;;;;;;;14.88;4.95;;;6.90;95.80;;;;;;5011911;28;20042;-42
2022/05/09 04:54:16;;;;;;;15.35;4.55;;;6.90;96.00;;;;;;5012126;28;20431;-42
2022/05/09 04:56:42;;;;;;;15.82;4.65;;;6.90;96.10;;;;;;5012470;28;20061;-42
2022/05/09 04:59:09;;;;;;;18.85;5.50;;;6.90;96.20;;;;;;5010714;28;20054;-43
2022/05/09 05:01:37;;;;;;;21.55;7.25;;;6.90;96.50;;;;;;5006879;28;20064;-43
2022/05/09 05:04:06;;;;;;;17.40;5.57;;;6.90;97.10;;;;;;5010578;28;20046;-43
2022/05/09 05:06:32;;;;;;;19.08;5.70;;;6.90;97.40;;;;;;5006866;28;20124;-43
2022/05/09 05:08:59;;;;;;;17.73;6.03;;;6.90;97.40;;;;;;5007373;28;20058;-43
2022/05/09 05:11:26;;;;;;;21.73;6.47;;;7.00;97.60;;;;;;5011833;28;20044;-43
2022/05/09 05:13:52;;;;;;;29.52;7.47;;;7.00;98.20;;;;;;5006735;28;20061;-43
2022/05/09 05:16:59;;;;;;;23.75;7.63;;;7.00;98.30;;;;;;5010731;28;20405;-42
2022/05/09 05:19:07;;;;;;;21.63;7.80;;;7.00;98.60;;;;;;5012391;28;20046;-43
2022/05/09 05:21:34;;;;;;;27.17;7.55;;;7.00;99.00;;;;;;5010625;28;20054;-42
2022/05/09 05:24:00;;;;;;;36.67;7.82;;;7.10;98.90;;;;;;5013213;28;20062;-43
2022/05/09 05:26:27;;;;;;;18.02;6.82;;;7.10;98.90;;;;;;5011749;28;20544;-43
2022/05/09 05:28:54;;;;;;;28.08;8.48;;;7.20;99.10;;;;;;5011561;28;20056;-43
2022/05/09 05:31:20;;;;;;;19.13;6.90;;;7.20;99.70;;;;;;5009918;28;20049;-43
2022/05/09 05:33:47;;;;;;;26.55;7.38;;;7.30;99.70;;;;;;4999511;28;20153;-43
2022/05/09 05:36:16;;;;;;;30.40;8.45;;;7.40;99.90;;;;;;5011106;28;20049;-43
2022/05/09 05:38:43;;;;;;;27.23;7.40;;;7.40;99.90;;;;;;5007075;28;20058;-42
2022/05/09 05:41:10;;;;;;;26.02;7.28;;;7.50;99.90;;;;;;5010160;28;20057;-43
2022/05/09 05:43:36;;;;;;;25.10;7.90;;;7.70;99.90;;;;;;5011313;28;20390;-43
2022/05/09 05:46:03;;;;;;;16.13;6.85;;;7.80;99.90;;;;;;5009859;28;20414;-43
2022/05/09 05:48:30;;;;;;;25.38;8.20;;;7.90;99.90;;;;;;5004218;28;20048;-43
2022/05/09 05:50:56;;;;;;;30.23;8.32;;;8.00;99.90;;;;;;5011248;28;20050;-43
2022/05/09 05:53:24;;;;;;;32.50;8.63;;;8.10;99.90;;;;;;5001234;28;20050;-43
2022/05/09 05:55:51;;;;;;;20.77;7.32;;;8.20;99.90;;;;;;5006518;28;20422;-42
2022/05/09 05:58:18;;;;;;;23.83;7.78;;;8.30;99.90;;;;;;5011413;28;20060;-43
2022/05/09 06:00:44;;;;;;;22.77;6.85;;;8.50;99.90;;;;;;5011222;28;20042;-43
2022/05/09 06:03:11;;;;;;;26.40;8.13;;;8.60;99.90;;;;;;5010114;28;20053;-42
2022/05/09 06:05:38;;;;;;;19.00;7.78;;;8.80;99.90;;;;;;5004497;28;20049;-42
2022/05/09 06:08:05;;;;;;;25.02;7.55;;;8.90;99.90;;;;;;5011488;28;20092;-42
2022/05/09 06:10:33;;;;;;;18.50;6.82;;;9.00;99.90;;;;;;5011192;28;20494;-42
2022/05/09 06:13:02;;;;;;;26.02;8.77;;;9.20;99.90;;;;;;5010979;28;20050;-42
2022/05/09 06:15:31;;;;;;;34.85;8.77;;;9.40;99.90;;;;;;5010919;28;20077;-42
2022/05/09 06:17:59;;;;;;;30.40;7.55;;;9.60;99.90;;;;;;5011193;28;20156;-42
2022/05/09 06:20:26;;;;;;;20.92;7.22;;;9.70;99.90;;;;;;5010005;28;20049;-42
2022/05/09 06:22:54;;;;;;;29.80;8.70;;;9.90;99.90;;;;;;5011338;28;20155;-42
2022/05/09 06:25:21;;;;;;;23.23;7.93;;;10.00;99.90;;;;;;5011362;28;20056;-42
2022/05/09 06:27:49;;;;;;;26.85;7.68;;;10.20;99.90;;;;;;5011495;28;20060;-43
2022/05/09 06:30:17;;;;;;;30.55;8.52;;;10.30;99.90;;;;;;5011231;28;20078;-43
2022/05/09 06:32:43;;;;;;;28.38;7.45;;;10.50;99.90;;;;;;5010853;28;20049;-42
2022/05/09 06:35:11;;;;;;;25.50;7.25;;;10.60;99.90;;;;;;5006011;28;20054;-42
2022/05/09 06:37:38;;;;;;;25.00;7.18;;;10.80;99.90;;;;;;5009964;28;20140;-42
2022/05/09 06:40:06;;;;;;;25.13;7.57;;;10.90;99.90;;;;;;5006872;28;20077;-42
2022/05/09 06:42:33;;;;;;;24.20;7.20;;;11.10;99.90;;;;;;5005934;28;20057;-43
2022/05/09 06:45:01;;;;;;;19.75;7.40;;;11.30;99.80;;;;;;5010130;28;20128;-42
2022/05/09 06:47:28;;;;;;;27.73;6.63;;;11.40;99.60;;;;;;5002717;28;20050;-42
2022/05/09 06:49:58;;;;;;;21.65;6.68;;;11.60;99.40;;;;;;5010936;28;20502;-43
2022/05/09 06:52:25;;;;;;;25.63;7.00;;;11.80;99.20;;;;;;5007155;28;20052;-42
2022/05/09 06:54:51;;;;;;;33.92;7.68;;;12.00;98.90;;;;;;5010555;28;20564;-43
2022/05/09 06:57:18;;;;;;;21.23;6.53;;;12.20;98.70;;;;;;5010904;28;20037;-42
2022/05/09 06:59:47;;;;;;;24.13;6.25;;;12.40;98.50;;;;;;5008029;28;20056;-42
2022/05/09 07:02:15;;;;;;;24.08;6.55;;;12.60;98.10;;;;;;5006520;28;20255;-43
2022/05/09 07:04:42;;;;;;;24.10;6.63;;;12.80;97.70;;;;;;5007671;28;20056;-42
2022/05/09 07:07:08;;;;;;;23.20;5.95;;;13.00;97.30;;;;;;5014495;28;20050;-42
2022/05/09 07:09:35;;;;;;;21.55;6.60;;;13.20;97.10;;;;;;5010258;28;20096;-42
2022/05/09 07:12:02;;;;;;;18.33;5.75;;;13.40;96.50;;;;;;5013970;28;20397;-42
2022/05/09 07:14:28;;;;;;;29.05;6.63;;;13.50;95.90;;;;;;5005065;28;20060;-42
2022/05/09 07:16:55;;;;;;;23.30;6.43;;;13.70;95.40;;;;;;5012093;28;20133;-42
2022/05/09 07:19:23;;;;;;;20.40;6.53;;;13.80;95.00;;;;;;5013738;28;20067;-42
2022/05/09 07:21:50;;;;;;;23.20;6.05;;;13.90;94.60;;;;;;5004236;28;20056;-42
2022/05/09 07:24:16;;;;;;;17.17;5.60;;;14.10;94.40;;;;;;5013630;28;20050;-43
2022/05/09 07:26:43;;;;;;;21.25;5.90;;;14.30;94.30;;;;;;5013318;28;20049;-43
2022/05/09 07:29:10;;;;;;;17.55;5.47;;;14.50;93.90;;;;;;5013787;28;20050;-42
2022/05/09 07:31:36;;;;;;;18.38;6.00;;;14.70;93.50;;;;;;5013197;28;20042;-43
2022/05/09 07:34:03;;;;;;;21.20;5.57;;;14.80;93.30;;;;;;5013549;28;20056;-42
2022/05/09 07:36:31;;;;;;;22.48;6.28;;;15.10;92.70;;;;;;5013171;28;20056;-42
2022/05/09 07:38:58;;;;;;;16.98;5.25;;;15.30;92.10;;;;;;5011768;28;20060;-43
2022/05/09 07:41:25;;;;;;;24.58;5.63;;;15.40;91.60;;;;;;5003712;28;20472;-43
2022/05/09 07:43:52;;;;;;;18.50;6.18;;;15.60;91.00;;;;;;5012426;28;20064;-43
2022/05/09 07:46:19;;;;;;;27.50;5.93;;;15.70;90.60;;;;;;5013120;28;20533;-43
2022/05/09 07:48:47;;;;;;;24.40;5.95;;;15.90;90.30;;;;;;5013456;28;20049;-42
2022/05/09 07:51:15;;;;;;;18.23;5.10;;;16.10;89.80;;;;;;5006745;28;20441;-42
2022/05/09 07:53:43;;;;;;;17.58;6.05;;;16.30;89.70;;;;;;5013337;28;20049;-42
2022/05/09 07:56:10;;;;;;;24.45;5.47;;;16.40;88.70;;;;;;5012959;28;20077;-42
2022/05/09 07:58:37;;;;;;;18.35;5.43;;;16.50;88.40;;;;;;5012843;28;20395;-43
2022/05/09 08:01:04;;;;;;;19.70;5.85;;;16.70;88.00;;;;;;5003127;28;20452;-43
2022/05/09 08:03:31;;;;;;;22.10;5.75;;;16.90;87.40;;;;;;5012678;28;20044;-43
2022/05/09 08:05:59;;;;;;;22.42;5.82;;;17.00;86.00;;;;;;5006846;28;20770;-43
2022/05/09 08:08:28;;;;;;;14.75;5.10;;;17.20;85.40;;;;;;4988507;28;20074;-42
2022/05/09 08:10:57;;;;;;;18.15;4.97;;;17.30;85.10;;;;;;5011042;28;20410;-43
2022/05/09 08:13:25;;;;;;;21.13;5.10;;;17.40;84.00;;;;;;5011951;28;20060;-43
2022/05/09 08:15:52;;;;;;;14.50;5.05;;;17.60;84.20;;;;;;5004829;28;20583;-43
2022/05/09 08:18:19;;;;;;;14.18;4.30;;;17.70;83.30;;;;;;5012152;28;20060;-43
2022/05/09 08:20:47;;;;;;;16.20;4.32;;;17.90;82.80;;;;;;5005286;28;20072;-43
2022/05/09 08:23:18;;;;;;;18.08;4.47;;;18.00;81.90;;;;;;5007909;28;20129;-43
2022/05/09 08:25:46;;;;;;;20.58;4.57;;;18.10;80.30;;;;;;5005614;28;20112;-43
2022/05/09 08:28:15;;;;;;;15.18;3.90;;;18.20;79.40;;;;;;5012154;28;20054;-43
2022/05/09 08:30:43;;;;;;;19.08;4.35;;;18.30;77.80;;;;;;5007901;28;20422;-43
2022/05/09 08:33:14;;;;;;;16.58;4.03;;;18.40;77.00;;;;;;5012829;28;20143;-43
2022/05/09 08:35:41;;;;;;;12.27;3.80;;;18.60;76.40;;;;;;5011933;28;20050;-43
2022/05/09 08:38:08;;;;;;;16.88;4.38;;;18.90;75.90;;;;;;5003520;28;20081;-43
2022/05/09 08:40:35;;;;;;;13.93;3.60;;;19.00;73.60;;;;;;5002006;28;20060;-43
2022/05/09 08:43:05;;;;;;;15.57;3.92;;;19.10;71.90;;;;;;5011743;28;20398;-43
2022/05/09 08:45:36;;;;;;;17.33;3.97;;;19.20;71.00;;;;;;5007148;28;20056;-43
2022/05/09 08:48:35;;;;;;;16.65;3.75;;;19.30;71.20;;;;;;5005354;28;20085;-43
2022/05/09 08:51:05;;;;;;;14.57;3.28;;;19.50;69.60;;;;;;5008012;28;20334;-43
2022/05/09 08:53:34;;;;;;;12.73;3.65;;;19.70;69.60;;;;;;5012087;28;20052;-42
2022/05/09 08:56:01;;;;;;;14.30;3.92;;;19.90;68.00;;;;;;5003969;28;20052;-44
2022/05/09 08:58:39;;;;;;;13.63;3.63;;;20.00;67.50;;;;;;5001157;28;20057;-43
2022/05/09 09:01:11;;;;;;;14.20;3.67;;;20.20;66.10;;;;;;5001747;28;20050;-43
2022/05/09 09:03:39;;;;;;;16.77;3.58;;;20.30;65.70;;;;;;5005161;28;20537;-43
2022/05/09 09:06:11;;;;;;;11.75;3.15;;;20.40;65.80;;;;;;5005691;28;20066;-43
2022/05/09 09:08:45;;;;;;;13.27;3.83;;;20.50;65.70;;;;;;5012608;28;20121;-42
2022/05/09 09:11:14;;;;;;;15.00;3.75;;;20.60;63.90;;;;;;5005765;28;20069;-42
2022/05/09 09:13:49;;;;;;;14.98;3.15;;;20.70;61.70;;;;;;5004278;28;20491;-42
2022/05/09 09:16:31;;;;;;;12.88;3.05;;;20.80;61.30;;;;;;5004326;28;20044;-42
2022/05/09 09:19:06;;;;;;;14.43;3.55;;;20.90;62.20;;;;;;5009813;28;20117;-43
2022/05/09 09:21:36;;;;;;;16.98;3.78;;;21.00;59.20;;;;;;5010735;28;20406;-43
2022/05/09 09:24:11;;;;;;;13.95;3.72;;;21.10;59.00;;;;;;5006765;28;20513;-42
2022/05/09 09:26:42;;;;;;;14.15;3.67;;;21.30;60.20;;;;;;5009539;28;20490;-43
2022/05/09 09:29:11;;;;;;;11.80;3.20;;;21.50;59.80;;;;;;5005910;28;20053;-43
2022/05/09 09:31:46;;;;;;;14.45;3.05;;;21.70;59.20;;;;;;5011413;28;20046;-43
2022/05/09 09:34:18;;;;;;;11.88;3.75;;;21.80;57.40;;;;;;5002361;28;20192;-43
2022/05/09 09:36:46;;;;;;;16.13;3.55;;;21.90;56.00;;;;;;5004521;28;20566;-43
2022/05/09 09:39:16;;;;;;;9.43;3.10;;;21.90;56.20;;;;;;5009882;28;20125;-43
2022/05/09 09:41:43;;;;;;;13.48;3.53;;;22.00;54.70;;;;;;5011294;28;20398;-43
2022/05/09 09:44:12;;;;;;;12.07;3.50;;;22.00;56.50;;;;;;5011361;28;20050;-43
2022/05/09 09:47:09;;;;;;;14.20;3.50;;;22.00;54.60;;;;;;5010804;28;20124;-43
2022/05/09 09:49:38;;;;;;;11.73;3.50;;;22.00;53.30;;;;;;5005659;28;20410;-43
2022/05/09 09:52:24;;;;;;;13.77;3.38;;;22.10;54.40;;;;;;5010425;28;20042;-43
2022/05/09 09:54:56;;;;;;;12.88;3.50;;;22.30;54.60;;;;;;5002389;28;20076;-43
2022/05/09 09:57:24;;;;;;;9.27;2.97;;;22.50;53.10;;;;;;5009537;28;20334;-43
2022/05/09 09:59:51;;;;;;;12.20;3.40;;;22.60;53.10;;;;;;5006062;28;20056;-43
2022/05/09 10:02:24;;;;;;;13.85;3.30;;;22.80;51.60;;;;;;5010104;28;20042;-43
2022/05/09 10:04:51;;;;;;;13.57;3.20;;;22.90;51.60;;;;;;4997916;28;20046;-43
2022/05/09 10:07:28;;;;;;;10.15;2.85;;;23.00;51.20;;;;;;5011450;28;20560;-42
2022/05/09 10:10:10;;;;;;;15.77;3.17;;;23.10;49.10;;;;;;5010873;28;20060;-43
2022/05/09 10:12:37;;;;;;;11.80;3.45;;;23.00;50.80;;;;;;5006531;28;20497;-43
2022/05/09 10:15:04;;;;;;;11.88;3.38;;;23.00;50.60;;;;;;5007103;28;20068;-43
2022/05/09 10:17:33;;;;;;;13.82;3.08;;;23.10;49.80;;;;;;5008331;28;20054;-43
2022/05/09 10:20:00;;;;;;;13.45;3.47;;;23.10;49.30;;;;;;5010461;28;20064;-43
2022/05/09 10:25:15;;;;;;;15.30;2.85;;;23.30;49.80;;;;;;5004481;28;20050;-43
2022/05/09 10:27:41;;;;;;;9.63;2.47;;;23.50;50.30;;;;;;5004228;28;20045;-43
2022/05/09 10:30:09;;;;;;;9.18;3.00;;;23.60;50.50;;;;;;5012446;28;20050;-43
2022/05/09 10:32:42;;;;;;;11.18;3.10;;;23.70;50.20;;;;;;5009372;28;20046;-43
2022/05/09 10:35:13;;;;;;;10.45;2.60;;;23.80;49.10;;;;;;5019483;28;20064;-43
2022/05/09 10:37:44;;;;;;;11.50;2.58;;;24.00;49.50;;;;;;5006839;28;20387;-43
2022/05/09 10:40:12;;;;;;;13.10;2.97;;;24.10;48.80;;;;;;5010541;28;20080;-43
2022/05/09 10:42:42;;;;;;;9.50;3.10;;;24.20;48.70;;;;;;5002256;28;20706;-43
2022/05/09 10:45:11;;;;;;;12.35;2.60;;;24.30;48.90;;;;;;5011916;28;20578;-43
2022/05/09 10:47:43;;;;;;;11.95;3.20;;;24.30;48.50;;;;;;5011266;28;20124;-43
2022/05/09 10:50:14;;;;;;;11.40;2.75;;;24.40;47.60;;;;;;5011176;28;20057;-41
2022/05/09 10:52:44;;;;;;;13.15;2.70;;;24.30;47.20;;;;;;5012750;28;20042;-42
2022/05/09 10:55:13;;;;;;;10.98;3.15;;;24.30;48.20;;;;;;5011157;28;20048;-43
2022/05/09 10:57:41;;;;;;;12.65;3.00;;;24.30;47.80;;;;;;5011311;28;20058;-43
2022/05/09 11:00:11;;;;;;;7.93;2.47;;;24.40;47.20;;;;;;5014112;28;20042;-42
2022/05/09 11:02:40;;;;;;;10.02;2.53;;;24.50;47.70;;;;;;5012179;28;20053;-43
2022/05/09 11:05:08;;;;;;;9.77;2.70;;;24.50;47.50;;;;;;5010195;28;20054;-42
2022/05/09 11:07:39;;;;;;;17.55;2.60;;;24.60;46.50;;;;;;5013297;28;20042;-42
2022/05/09 11:10:13;;;;;;;9.60;2.80;;;24.70;47.70;;;;;;4999051;28;20049;-43
2022/05/09 11:13:01;;;;;;;12.93;2.83;;;24.90;47.50;;;;;;5026287;28;20050;-42
2022/05/09 11:15:32;;;;;;;8.85;3.28;;;24.80;45.30;;;;;;5004715;28;20054;-43
2022/05/09 11:18:15;;;;;;;11.55;3.40;;;24.90;46.50;;;;;;5011758;28;20395;-43
2022/05/09 11:20:47;;;;;;;10.57;3.08;;;25.00;46.40;;;;;;5007126;28;20045;-42
2022/05/09 11:23:24;;;;;;;9.50;3.03;;;25.20;47.10;;;;;;5009684;28;20065;-42
2022/05/09 11:25:59;;;;;;;10.35;3.53;;;25.20;45.80;;;;;;5007492;28;20072;-43
2022/05/09 11:29:00;;;;;;;15.35;2.80;;;25.20;46.30;;;;;;5003383;28;20125;-43
2022/05/09 11:31:30;;;;;;;11.20;2.80;;;25.40;47.40;;;;;;4954455;28;20051;-43
2022/05/09 11:34:05;;;;;;;8.98;2.88;;;25.20;46.00;;;;;;5012648;28;20058;-44
2022/05/09 11:36:40;;;;;;;9.50;2.55;;;25.30;44.80;;;;;;5010724;28;20391;-43
2022/05/09 11:39:09;;;;;;;8.60;2.63;;;25.30;45.30;;;;;;5011707;28;20461;-43
2022/05/09 11:41:39;;;;;;;11.93;2.85;;;25.40;47.20;;;;;;5012384;28;20060;-43
2022/05/09 11:44:14;;;;;;;6.43;2.58;;;25.50;46.30;;;;;;5012165;28;20077;-43
2022/05/09 11:47:05;;;;;;;7.72;2.47;;;25.80;47.30;;;;;;5007008;28;20064;-43
2022/05/09 11:49:59;;;;;;;10.77;2.92;;;26.00;47.60;;;;;;5005129;28;20081;-43
2022/05/09 11:52:27;;;;;;;13.10;3.42;;;26.20;47.40;;;;;;5006872;28;20053;-43
2022/05/09 11:54:54;;;;;;;9.25;2.78;;;26.40;46.20;;;;;;5010720;28;20056;-44
2022/05/09 11:57:26;;;;;;;13.10;3.70;;;26.50;45.00;;;;;;5013220;28;20049;-43
2022/05/09 11:59:54;;;;;;;13.52;2.97;;;26.50;43.40;;;;;;5013774;28;20056;-43
2022/05/09 12:02:46;;;;;;;10.30;3.08;;;26.40;45.40;;;;;;5012194;28;20060;-43
2022/05/09 12:05:49;;;;;;;10.43;3.20;;;26.70;46.20;;;;;;5004143;28;20393;-43
2022/05/09 12:08:16;;;;;;;11.80;3.50;;;26.90;46.30;;;;;;5012118;28;20112;-43
2022/05/09 12:10:43;;;;;;;8.80;3.40;;;26.90;44.30;;;;;;5009959;28;20414;-43
2022/05/09 12:13:14;;;;;;;14.70;3.85;;;26.60;42.50;;;;;;5011971;28;20042;-44
2022/05/09 12:15:51;;;;;;;8.95;3.03;;;26.30;42.80;;;;;;5012166;28;20414;-43
2022/05/09 12:18:52;;;;;;;7.55;3.03;;;26.20;43.10;;;;;;4998607;28;20050;-43
2022/05/09 12:21:21;;;;;;;13.10;3.33;;;26.30;41.50;;;;;;5006926;28;20441;-42
2022/05/09 12:24:12;;;;;;;11.25;2.95;;;26.10;43.10;;;;;;5009763;28;20809;-43
2022/05/09 12:26:40;;;;;;;8.65;2.85;;;26.20;42.90;;;;;;5009849;28;20137;-43
2022/05/09 12:29:24;;;;;;;12.30;3.20;;;26.30;42.70;;;;;;5012096;28;20057;-42
2022/05/09 12:31:52;;;;;;;10.32;3.47;;;26.30;42.10;;;;;;5003843;28;20053;-43
2022/05/09 12:34:22;;;;;;;14.68;3.40;;;26.20;42.30;;;;;;5012599;28;20049;-43
2022/05/09 12:36:51;;;;;;;9.57;2.70;;;26.30;42.40;;;;;;5009012;28;20143;-42
2022/05/09 12:39:19;;;;;;;11.05;3.22;;;26.40;43.70;;;;;;5012845;28;20046;-43
2022/05/09 12:41:48;;;;;;;9.15;2.55;;;26.50;42.80;;;;;;5007448;28;20460;-43
2022/05/09 12:44:17;;;;;;;12.15;3.17;;;26.60;43.00;;;;;;4987294;28;20129;-43
2022/05/09 12:46:45;;;;;;;13.68;2.80;;;26.70;42.40;;;;;;4990926;28;20053;-43
2022/05/09 12:49:12;;;;;;;11.48;2.95;;;26.80;42.90;;;;;;4992792;28;20421;-43
2022/05/09 12:51:42;;;;;;;9.20;2.72;;;26.90;42.80;;;;;;4991455;28;20061;-42
2022/05/09 12:54:11;;;;;;;8.75;2.70;;;27.20;43.40;;;;;;4992775;28;20050;-43
2022/05/09 12:56:39;;;;;;;11.30;2.95;;;27.40;43.20;;;;;;4991489;28;20399;-43
2022/05/09 12:59:07;;;;;;;11.63;2.53;;;27.50;43.30;;;;;;4990316;28;20054;-43
2022/05/09 13:01:34;;;;;;;8.63;2.65;;;27.70;43.20;;;;;;4991840;28;20046;-43
2022/05/09 13:04:01;;;;;;;12.90;2.50;;;27.80;42.50;;;;;;4974228;28;20061;-43